Time;durP1;ratioP1;P1;durP2;ratioP2;P2;SDS_P1;SDS_P2;PMS_P1;PMS_P2;Temp;Humidity;BMP_temperature;BMP_pressure;BME280_temperature;BME280_humidity;BME280_pressure;Samples;Min_cycle;Max_cycle;Signal;HPM_P1;HPM_P2
2021/05/19 00:07:24;;;;;;;1999.90;999.90;;;;;;;10.33;71.85;100786.59;15872925;28;20043;-62
2021/05/19 00:14:56;;;;;;;1999.90;999.90;;;;;;;10.23;71.69;100786.91;15874367;28;20110;-62
2021/05/19 00:22:28;;;;;;;1999.90;999.90;;;;;;;10.18;71.80;100787.03;15872278;28;20131;-62
2021/05/19 00:30:00;;;;;;;1999.90;999.90;;;;;;;10.04;72.52;100790.00;15872902;28;20488;-64
2021/05/19 00:37:32;;;;;;;1999.90;999.90;;;;;;;9.94;72.95;100793.13;15864462;28;20183;-64
2021/05/19 00:45:06;;;;;;;1999.90;999.90;;;;;;;9.78;73.06;100791.94;15837418;28;20123;-64
2021/05/19 00:52:38;;;;;;;1999.90;999.90;;;;;;;9.89;72.94;100792.44;15854885;28;20043;-63
2021/05/19 01:00:14;;;;;;;1999.90;999.90;;;;;;;9.81;73.10;100786.56;15845477;28;20523;-64
2021/05/19 01:15:47;;;;;;;1999.90;999.90;;;;;;;9.91;73.28;100804.09;15807495;28;20051;-63
2021/05/19 01:23:20;;;;;;;1999.90;999.90;;;;;;;9.96;73.25;100795.56;15806290;28;20040;-64
2021/05/19 01:30:52;;;;;;;1999.90;999.90;;;;;;;10.12;72.71;100791.16;15807475;28;20445;-64
2021/05/19 01:38:24;;;;;;;1999.90;999.90;;;;;;;10.27;73.42;100803.81;15827102;28;20050;-64
2021/05/19 01:45:59;;;;;;;1999.90;999.90;;;;;;;10.36;73.55;100799.03;15867404;28;20517;-62
2021/05/19 01:53:33;;;;;;;1999.90;999.90;;;;;;;10.38;72.60;100810.69;15867781;28;20044;-62
2021/05/19 02:01:05;;;;;;;1999.90;999.90;;;;;;;10.53;72.65;100812.97;15866882;28;20059;-62
2021/05/19 02:08:38;;;;;;;1999.90;999.90;;;;;;;10.62;72.79;100826.91;15867334;28;20134;-62
2021/05/19 02:16:12;;;;;;;1999.90;999.90;;;;;;;10.70;72.37;100826.06;15865419;28;20035;-63
2021/05/19 02:23:45;;;;;;;1999.90;999.90;;;;;;;10.80;72.82;100833.28;15865044;28;20036;-62
2021/05/19 02:31:19;;;;;;;1999.90;999.90;;;;;;;10.84;73.82;100837.88;15847773;28;20047;-62
2021/05/19 02:38:52;;;;;;;1999.90;999.90;;;;;;;10.94;74.62;100834.75;15838451;28;20062;-62
2021/05/19 02:46:24;;;;;;;1999.90;999.90;;;;;;;11.21;74.75;100847.44;15800985;28;20097;-62
2021/05/19 02:53:57;;;;;;;1999.90;999.90;;;;;;;11.42;75.35;100855.09;15801055;28;20036;-61
2021/05/19 03:01:28;;;;;;;1999.90;999.90;;;;;;;11.46;76.08;100858.84;15814883;28;20067;-63
2021/05/19 03:09:07;;;;;;;1999.90;999.90;;;;;;;11.86;75.74;100864.91;15800469;28;20048;-63
2021/05/19 03:16:39;;;;;;;1999.90;999.90;;;;;;;12.02;75.38;100862.38;15801256;28;20040;-61
2021/05/19 03:24:13;;;;;;;1999.90;999.90;;;;;;;12.12;75.25;100865.56;15783935;28;20198;-64
2021/05/19 03:31:45;;;;;;;1999.90;999.90;;;;;;;12.25;75.33;100879.63;15801052;28;20543;-62
2021/05/19 03:39:17;;;;;;;1999.90;999.90;;;;;;;12.43;74.79;100876.38;15831326;28;20397;-63
2021/05/19 03:46:49;;;;;;;1999.90;999.90;;;;;;;12.57;74.58;100898.47;15852521;28;20078;-63
2021/05/19 03:54:22;;;;;;;1999.90;999.90;;;;;;;12.62;74.34;100894.66;15874292;28;20035;-63
2021/05/19 04:01:53;;;;;;;1999.90;999.90;;;;;;;12.70;74.59;100897.38;15873405;28;20063;-63
2021/05/19 04:09:26;;;;;;;1999.90;999.90;;;;;;;12.88;73.73;100898.03;15873245;28;20438;-63
2021/05/19 04:16:58;;;;;;;1999.90;999.90;;;;;;;13.06;73.31;100895.06;15872555;28;20507;-62
2021/05/19 04:24:30;;;;;;;1999.90;999.90;;;;;;;13.40;72.67;100907.91;15872226;28;20035;-63
2021/05/19 04:32:02;;;;;;;1999.90;999.90;;;;;;;13.34;72.93;100915.72;15872013;28;20131;-63
2021/05/19 04:39:35;;;;;;;1999.90;999.90;;;;;;;13.65;71.08;100929.22;15871999;28;20055;-64
2021/05/19 04:47:07;;;;;;;1999.90;999.90;;;;;;;13.74;71.28;100923.47;15871731;28;20047;-63
2021/05/19 04:54:39;;;;;;;1999.90;999.90;;;;;;;13.88;70.80;100934.38;15869046;28;20038;-63
2021/05/19 05:02:11;;;;;;;1999.90;999.90;;;;;;;13.97;69.85;100927.47;15860246;28;20031;-62
2021/05/19 05:09:47;;;;;;;1999.90;999.90;;;;;;;13.69;69.46;100935.75;15853350;28;20523;-65
2021/05/19 05:17:18;;;;;;;1999.90;999.90;;;;;;;13.76;69.60;100941.63;15869352;28;20051;-62
2021/05/19 05:24:51;;;;;;;1999.90;999.90;;;;;;;14.83;66.47;100942.19;15869043;28;20040;-64
2021/05/19 05:32:22;;;;;;;1999.90;999.90;;;;;;;15.76;62.49;100941.97;15868318;28;20040;-62
2021/05/19 05:39:55;;;;;;;1999.90;999.90;;;;;;;17.12;59.23;100955.22;15867527;28;20054;-64
2021/05/19 05:47:26;;;;;;;1999.90;999.90;;;;;;;17.86;55.82;100975.59;15866717;28;20043;-64
2021/05/19 05:54:59;;;;;;;1999.90;999.90;;;;;;;17.44;56.67;100975.56;15866030;28;20044;-62
2021/05/19 06:02:34;;;;;;;1999.90;999.90;;;;;;;18.50;55.45;100983.47;15867364;28;20118;-64
2021/05/19 06:10:08;;;;;;;1999.90;999.90;;;;;;;19.88;48.12;100981.59;15865791;28;20050;-64
2021/05/19 06:17:40;;;;;;;1999.90;999.90;;;;;;;19.14;49.36;100990.03;15866723;28;20438;-64
2021/05/19 06:25:13;;;;;;;1999.90;999.90;;;;;;;19.51;49.63;100996.56;15866224;28;20043;-63
2021/05/19 06:32:45;;;;;;;1999.90;999.90;;;;;;;18.56;50.36;100990.44;15865488;28;20499;-63
2021/05/19 06:40:17;;;;;;;1999.90;999.90;;;;;;;17.89;52.46;101007.88;15865971;28;20044;-64
2021/05/19 06:47:49;;;;;;;1999.90;999.90;;;;;;;17.96;53.07;101002.38;15864846;28;20134;-61
2021/05/19 06:55:22;;;;;;;1999.90;999.90;;;;;;;19.98;48.96;101003.53;15865317;28;20489;-63
2021/05/19 07:02:54;;;;;;;1999.90;999.90;;;;;;;17.99;50.34;101017.72;15864838;28;20052;-63
2021/05/19 07:10:27;;;;;;;1999.90;999.90;;;;;;;18.22;49.58;101021.34;15856314;28;20134;-64
2021/05/19 07:18:05;;;;;;;1999.90;999.90;;;;;;;18.84;48.68;101015.50;15863156;28;20391;-63
2021/05/19 07:25:37;;;;;;;1999.90;999.90;;;;;;;20.04;45.87;101023.81;15862043;28;20097;-65
2021/05/19 07:33:11;;;;;;;1999.90;999.90;;;;;;;19.23;46.66;101033.00;15852236;28;20058;-65
2021/05/19 07:40:43;;;;;;;1999.90;999.90;;;;;;;19.79;47.66;101030.03;15873532;28;20047;-65
2021/05/19 07:48:15;;;;;;;1999.90;999.90;;;;;;;18.94;49.10;101043.91;15871583;28;20044;-65
2021/05/19 07:55:50;;;;;;;1999.90;999.90;;;;;;;21.75;43.76;101039.91;15873413;28;20043;-64
2021/05/19 08:03:34;;;;;;;1999.90;999.90;;;;;;;22.36;42.17;101037.97;15848105;28;20044;-64
2021/05/19 08:11:07;;;;;;;1999.90;999.90;;;;;;;22.15;42.74;101038.78;15838102;28;20039;-64
2021/05/19 08:18:38;;;;;;;1999.90;999.90;;;;;;;22.11;41.50;101032.28;15852008;28;20044;-64
2021/05/19 08:26:11;;;;;;;1999.90;999.90;;;;;;;23.06;40.32;101038.34;15847625;28;20115;-64
2021/05/19 08:33:42;;;;;;;1999.90;999.90;;;;;;;19.30;46.62;101031.09;15843344;28;20079;-66
2021/05/19 08:41:15;;;;;;;1999.90;999.90;;;;;;;20.82;42.46;101043.50;15864087;28;20051;-64
2021/05/19 08:48:53;;;;;;;1999.90;999.90;;;;;;;22.80;42.19;101042.41;15807748;28;20291;-65
2021/05/19 08:56:25;;;;;;;1999.90;999.90;;;;;;;20.87;41.04;101037.47;15840008;28;20044;-64
2021/05/19 09:04:05;;;;;;;1999.90;999.90;;;;;;;20.52;42.11;101035.19;15862494;28;20500;-65
2021/05/19 09:11:55;;;;;;;1999.90;999.90;;;;;;;22.63;39.85;101058.28;15857307;28;20043;-64
2021/05/19 09:19:34;;;;;;;1999.90;999.90;;;;;;;23.78;36.72;101044.56;15807612;28;20044;-65
2021/05/19 09:27:06;;;;;;;1999.90;999.90;;;;;;;23.00;36.55;101048.50;15803943;28;20044;-64
2021/05/19 09:34:41;;;;;;;1999.90;999.90;;;;;;;24.79;36.31;101049.06;15803346;28;20042;-64
2021/05/19 09:42:14;;;;;;;1999.90;999.90;;;;;;;22.91;37.60;101048.91;15785092;28;20059;-65
2021/05/19 09:49:56;;;;;;;1999.90;999.90;;;;;;;22.56;38.77;101043.25;15809823;28;20131;-64
2021/05/19 09:57:40;;;;;;;1999.90;999.90;;;;;;;24.12;37.41;101039.03;15864935;28;20046;-64
2021/05/19 10:05:16;;;;;;;1999.90;999.90;;;;;;;23.53;35.30;101045.47;15857219;28;20078;-65
2021/05/19 10:12:49;;;;;;;1999.90;999.90;;;;;;;24.10;33.79;101042.31;15861329;28;20504;-65
2021/05/19 10:20:25;;;;;;;1999.90;999.90;;;;;;;24.95;35.11;101040.75;15830167;28;20052;-65
2021/05/19 10:28:00;;;;;;;1999.90;999.90;;;;;;;24.01;36.58;101032.59;15797421;28;20493;-65
2021/05/19 10:35:33;;;;;;;1999.90;999.90;;;;;;;23.94;34.99;101036.31;15803270;28;20068;-64
2021/05/19 10:43:06;;;;;;;1999.90;999.90;;;;;;;24.32;36.34;101033.63;15819374;28;20507;-61
2021/05/19 10:50:38;;;;;;;1999.90;999.90;;;;;;;24.38;34.01;101029.06;15861428;28;20097;-62
2021/05/19 10:58:25;;;;;;;;;;;;;;;25.18;32.94;101022.19;15850032;28;20047;-61
2021/05/19 11:06:11;;;;;;;1999.90;999.90;;;;;;;23.48;36.68;101028.81;15854330;28;19920;-61
2021/05/19 11:14:14;;;;;;;1999.90;999.90;;;;;;;22.91;36.43;101029.00;15872795;28;20420;-60
2021/05/19 11:21:46;;;;;;;1999.90;999.90;;;;;;;25.69;31.36;101026.00;15872915;28;20040;-60
2021/05/19 11:29:18;;;;;;;1999.90;999.90;;;;;;;25.70;33.06;101019.09;15871769;28;20130;-62
2021/05/19 11:36:54;;;;;;;1999.90;999.90;;;;;;;25.10;32.28;101014.94;15891085;27;20544;-61
2021/05/19 11:44:31;;;;;;;1999.90;999.90;;;;;;;23.46;33.05;101013.38;15873974;28;20050;-59
2021/05/19 11:52:05;;;;;;;1999.90;999.90;;;;;;;25.33;32.25;101020.78;15871466;28;20113;-60
2021/05/19 11:59:39;;;;;;;1999.90;999.90;;;;;;;27.98;30.94;101009.91;15875186;28;20040;-61
2021/05/19 12:07:14;;;;;;;1999.90;999.90;;;;;;;26.89;30.86;101017.53;15872510;28;20046;-60
2021/05/19 12:14:53;;;;;;;1999.90;999.90;;;;;;;25.55;29.72;101004.19;15871441;28;20048;-60
2021/05/19 12:22:26;;;;;;;1999.90;999.90;;;;;;;27.78;29.14;101023.50;15869541;28;20044;-60
2021/05/19 12:29:59;;;;;;;1999.90;999.90;;;;;;;29.88;27.65;101024.41;15870470;28;20126;-62
2021/05/19 12:37:39;;;;;;;;;;;;;;;26.51;29.23;101007.63;15839349;28;20120;-62
2021/05/19 12:45:12;;;;;;;1999.90;999.90;;;;;;;27.36;25.65;101014.56;15804063;28;20360;-62
2021/05/19 12:52:44;;;;;;;1999.90;999.90;;;;;;;30.01;24.04;101017.81;15841203;28;20126;-62
2021/05/19 13:00:17;;;;;;;1999.90;999.90;;;;;;;30.04;25.02;101008.31;15867174;28;20079;-61
2021/05/19 13:07:50;;;;;;;1999.90;999.90;;;;;;;30.22;22.31;101014.28;15859969;28;20183;-61
2021/05/19 13:15:39;;;;;;;1999.90;999.90;;;;;;;25.19;30.92;101007.47;15840035;28;20071;-62
2021/05/19 13:23:12;;;;;;;1999.90;999.90;;;;;;;24.48;32.96;101005.34;15832569;28;20429;-62
2021/05/19 13:30:43;;;;;;;1999.90;999.90;;;;;;;24.46;32.16;101002.13;15866294;28;20043;-62
2021/05/19 13:38:16;;;;;;;1999.90;999.90;;;;;;;24.24;33.09;100992.09;15865932;28;20040;-63
2021/05/19 13:45:48;;;;;;;1999.90;999.90;;;;;;;22.81;32.32;101000.53;15867157;28;20724;-64
2021/05/19 13:53:20;;;;;;;1999.90;999.90;;;;;;;21.49;35.16;100992.78;15865144;28;20548;-63
2021/05/19 14:00:52;;;;;;;1999.90;999.90;;;;;;;21.82;36.57;100985.16;15866604;28;20043;-64
2021/05/19 14:08:26;;;;;;;1999.90;999.90;;;;;;;21.68;35.69;100990.81;15865831;28;20084;-65
2021/05/19 14:16:04;;;;;;;1999.90;999.90;;;;;;;21.93;35.32;100979.47;15846364;28;20047;-64
2021/05/19 14:31:27;;;;;;;1999.90;999.90;;;;;;;21.57;37.65;100982.25;15865417;28;20594;-63
2021/05/19 15:02:33;;;;;;;1999.90;999.90;;;;;;;21.52;37.48;100986.28;15799543;28;20535;-64
2021/05/19 15:10:07;;;;;;;1999.90;999.90;;;;;;;21.32;36.91;100976.50;15799126;28;20047;-64
2021/05/19 15:17:40;;;;;;;1999.90;999.90;;;;;;;21.04;34.98;100975.13;15848843;28;20047;-61
2021/05/19 15:25:13;;;;;;;1999.90;999.90;;;;;;;20.66;36.43;100970.91;15846744;28;20054;-63
2021/05/19 15:32:44;;;;;;;1999.90;999.90;;;;;;;21.17;35.75;100983.31;15797788;28;20381;-64
2021/05/19 15:40:17;;;;;;;1999.90;999.90;;;;;;;21.04;34.16;100988.50;15802142;28;20159;-63
2021/05/19 15:47:49;;;;;;;;;;;;;;;20.97;37.13;101002.69;15811723;28;20048;-63
2021/05/19 15:55:21;;;;;;;1999.90;999.90;;;;;;;20.00;37.61;100991.81;15809240;28;20019;-62
2021/05/19 16:02:56;;;;;;;1999.90;999.90;;;;;;;20.00;38.57;100986.94;15808695;28;20054;-64
2021/05/19 16:10:28;;;;;;;1999.90;999.90;;;;;;;20.38;38.44;100979.19;15826962;28;20052;-63
2021/05/19 16:18:00;;;;;;;1999.90;999.90;;;;;;;20.27;37.87;100983.94;15869812;28;20463;-62
2021/05/19 16:25:34;;;;;;;1999.90;999.90;;;;;;;20.25;37.80;100987.19;15870970;28;20051;-62
2021/05/19 16:41:52;;;;;;;1999.90;999.90;;;;;;;20.52;36.56;100987.81;15870829;28;20040;-64
2021/05/19 16:49:25;;;;;;;1999.90;999.90;;;;;;;20.12;36.88;100986.69;15868642;28;20112;-63
2021/05/19 16:56:58;;;;;;;;;;;;;;;19.43;37.03;100986.34;15865897;28;20031;-61
2021/05/19 17:12:22;;;;;;;1999.90;999.90;;;;;;;19.26;38.05;100986.94;15865981;28;20503;-63
2021/05/19 17:19:53;;;;;;;1999.90;999.90;;;;;;;19.20;38.74;100988.50;15866376;28;20059;-60
2021/05/19 17:27:26;;;;;;;1999.90;999.90;;;;;;;19.55;39.10;100991.78;15868494;28;20088;-60
2021/05/19 17:34:58;;;;;;;1999.90;999.90;;;;;;;19.32;38.64;100999.56;15865670;28;20036;-60
2021/05/19 17:42:30;;;;;;;1999.90;999.90;;;;;;;18.87;38.05;100994.97;15823786;28;20661;-63
2021/05/19 17:50:03;;;;;;;1999.90;999.90;;;;;;;19.13;39.98;100988.41;15811109;28;20100;-63
2021/05/19 17:57:36;;;;;;;1999.90;999.90;;;;;;;18.91;40.07;100998.63;15867211;28;20407;-62
2021/05/19 18:05:09;;;;;;;1999.90;999.90;;;;;;;18.66;42.05;101001.13;15866840;28;20048;-62
2021/05/19 18:12:41;;;;;;;1999.90;999.90;;;;;;;18.59;42.46;101001.78;15864311;28;20059;-64
2021/05/19 18:20:13;;;;;;;1999.90;999.90;;;;;;;18.20;43.39;101015.28;15815254;28;20119;-64
2021/05/19 18:27:46;;;;;;;1999.90;999.90;;;;;;;18.15;44.68;101012.78;15819306;28;20043;-63
2021/05/19 18:35:21;;;;;;;1999.90;999.90;;;;;;;17.86;45.52;101017.91;15865300;28;20555;-62
2021/05/19 18:42:55;;;;;;;1999.90;999.90;;;;;;;17.60;45.55;101026.25;15865154;28;20040;-62
2021/05/19 18:50:28;;;;;;;1999.90;999.90;;;;;;;17.37;46.39;101029.03;15865459;28;20051;-65
2021/05/19 18:58:00;;;;;;;1999.90;999.90;;;;;;;17.13;47.50;101043.44;15866298;28;20122;-64
2021/05/19 19:05:32;;;;;;;1999.90;999.90;;;;;;;16.84;47.39;101042.78;15867361;28;20048;-62
2021/05/19 19:13:05;;;;;;;1999.90;999.90;;;;;;;16.58;49.20;101051.00;15847532;28;20051;-61
2021/05/19 19:20:37;;;;;;;1999.90;999.90;;;;;;;16.25;50.73;101059.81;15877104;28;20657;-62
2021/05/19 19:28:12;;;;;;;1999.90;999.90;;;;;;;16.09;51.40;101068.25;15858526;28;20051;-65
2021/05/19 19:35:43;;;;;;;1999.90;999.90;;;;;;;15.84;52.15;101067.59;15876352;28;20055;-61
2021/05/19 19:43:16;;;;;;;1999.90;999.90;;;;;;;15.67;52.95;101076.38;15876057;28;20084;-63
2021/05/19 19:50:48;;;;;;;1999.90;999.90;;;;;;;15.45;53.07;101086.97;15877274;28;20464;-64
2021/05/19 19:58:20;;;;;;;1999.90;999.90;;;;;;;15.31;54.44;101092.97;15875353;28;20047;-65
2021/05/19 20:05:52;;;;;;;1999.90;999.90;;;;;;;15.10;54.63;101078.28;15876269;28;20043;-64
2021/05/19 20:13:26;;;;;;;1999.90;999.90;;;;;;;14.97;55.29;101094.34;15857275;28;20089;-62
2021/05/19 20:20:58;;;;;;;1999.90;999.90;;;;;;;14.96;55.21;101103.13;15874240;28;20065;-62
2021/05/19 20:28:30;;;;;;;1999.90;999.90;;;;;;;14.88;56.04;101106.88;15850986;28;20040;-62
2021/05/19 20:36:02;;;;;;;1999.90;999.90;;;;;;;14.76;56.79;101106.91;15808307;28;20609;-62
2021/05/19 20:43:34;;;;;;;1999.90;999.90;;;;;;;14.63;57.71;101106.91;15826170;28;20032;-63
2021/05/19 20:51:06;;;;;;;1999.90;999.90;;;;;;;14.41;57.68;101122.19;15859547;28;20055;-60
2021/05/19 20:58:38;;;;;;;1999.90;999.90;;;;;;;14.30;56.96;101137.84;15870631;28;20517;-63
2021/05/19 21:06:10;;;;;;;1999.90;999.90;;;;;;;14.44;56.69;101131.91;15836159;28;20105;-62
2021/05/19 21:13:42;;;;;;;1999.90;999.90;;;;;;;14.68;56.65;101133.94;15808024;28;20044;-62
2021/05/19 21:21:14;;;;;;;1999.90;999.90;;;;;;;14.59;56.89;101138.84;15821318;28;20048;-63
2021/05/19 21:28:47;;;;;;;1999.90;999.90;;;;;;;14.24;58.35;101139.22;15788706;28;20081;-62
2021/05/19 21:36:19;;;;;;;1999.90;999.90;;;;;;;14.32;58.15;101145.94;15804858;28;20047;-61
2021/05/19 21:43:52;;;;;;;1999.90;999.90;;;;;;;14.44;57.93;101158.03;15850486;28;20158;-62
2021/05/19 21:51:23;;;;;;;1999.90;999.90;;;;;;;14.51;57.94;101137.81;15867485;28;20526;-59
2021/05/19 21:58:56;;;;;;;1999.90;999.90;;;;;;;14.21;59.84;101145.56;15867565;28;20088;-63
2021/05/19 22:06:28;;;;;;;1999.90;999.90;;;;;;;14.40;59.49;101145.81;15867927;28;20115;-60
2021/05/19 22:14:00;;;;;;;1999.90;999.90;;;;;;;14.60;58.71;101148.94;15867590;27;20043;-64
2021/05/19 22:21:48;;;;;;;1999.90;999.90;;;;;;;14.52;59.22;101150.66;15865357;28;20496;-60
2021/05/19 22:29:23;;;;;;;1999.90;999.90;;;;;;;14.84;58.88;101168.59;15866536;28;20504;-62
2021/05/19 22:36:54;;;;;;;1999.90;999.90;;;;;;;14.59;60.26;101158.50;15865714;28;20381;-62
2021/05/19 22:44:26;;;;;;;1999.90;999.90;;;;;;;14.49;60.93;101164.59;15847707;28;20089;-63
2021/05/19 22:51:58;;;;;;;1999.90;999.90;;;;;;;14.51;61.95;101167.88;15862029;28;20516;-64
2021/05/19 22:59:30;;;;;;;1999.90;999.90;;;;;;;14.73;61.93;101168.25;15864280;28;20096;-63
2021/05/19 23:07:02;;;;;;;1999.90;999.90;;;;;;;14.79;62.82;101176.41;15864746;28;20069;-63
2021/05/19 23:14:34;;;;;;;1999.90;999.90;;;;;;;14.69;62.44;101177.69;15863056;28;20067;-63
2021/05/19 23:22:06;;;;;;;1999.90;999.90;;;;;;;14.66;62.28;101173.59;15860051;28;20082;-63
2021/05/19 23:29:38;;;;;;;1999.90;999.90;;;;;;;14.65;63.01;101171.16;15845138;28;20427;-64
2021/05/19 23:37:10;;;;;;;1999.90;999.90;;;;;;;14.62;62.69;101169.06;15862491;28;20036;-65
2021/05/19 23:44:42;;;;;;;1999.90;999.90;;;;;;;14.61;63.26;101175.84;15793196;28;508110;-65
2021/05/19 23:52:16;;;;;;;1999.90;999.90;;;;;;;14.45;63.63;101178.50;15801772;28;20040;-64
2021/05/19 23:59:49;;;;;;;1999.90;999.90;;;;;;;14.27;64.22;101183.44;15801492;28;20097;-64
